Armonk, NY

9:25 PM EDT on April 20, 2015 (GMT -0400)
Armonk, NY | | Change Station
CLOSE
Current Station
Personal Weather Station
Location: Armonk, NY
Elevation: 472 ft
Nearby Weather Stations
Active Advisory: Dense Fog Advisory

Elev 472 ft 41.12 °N, 73.70 °W | Updated 1 second ago

Fog
Fog
53.6 °F
Feels Like 53.6 °F
N
4.5
Wind Variable Wind from East
Gusts 9.8 mph

Today
High -- | Low -- °F
--% Chance of Precip.
Yesterday
High -- | Low -- °F
Precip. -- in
6:08 AM 7:39 PM
Waxing Crescent, 7% visible
Pressure 29.65 in
Visibility 0.2 miles
Clouds
Dew Point 53 °F
Humidity 97%
Rainfall 1.52 in
Snow Depth Not available.
UV 0.0 out of 12
Pollen 4.40 out of 12
Air Quality Not available.
Flu Activity Widespread
METAR KHPN 210056Z 09004KT M1/4SM R16/1200V1400FT FG VV001 12/12 A2965 RMK AO2 SLP040 T01170117

More Conditions Fewer Conditions

Pressure 29.65 in
Visibility 0.2 miles
Clouds
Dew Point 53 °F
Humidity 97%
Rainfall 1.52 in
Snow Depth Not available.
UV 0.0 out of 12
Pollen 4.40 out of 12
Air Quality Not available.
Flu Activity Widespread
METAR KHPN 210056Z 09004KT M1/4SM R16/1200V1400FT FG VV001 12/12 A2965 RMK AO2 SLP040 T01170117

More Conditions Fewer Conditions

10-Day Weather Forecast

Almanac

Astronomy

Apr. 20, 2015 Rise Set
Actual Time
Civil Twilight
Nautical Twilight
Astronomical Twilight
Moon
Length of Visible Light
Length of Day
Tomorrow will be .
, % of the Moon is Illuminated

Today's Extremes

State Highs State Lows

Community

WunderPhotos

Upload Photos

1,815,274 photos uploaded!

WunderBlogs® & News

Nearby

Air Quality

  Air Quality AQ Index Pollutant
Not available.

Snow Depth

Station Depth Elevation

Earthquake Activity

City Distance Mag. Time & Date
Minimum magnitude displayed is 2.5.

Coastal Water Temperatures

Place Temperature

Stations

Nearby Weather Stations

Station Location Temp. Windchill Dew Point Humidity Wind Precip. Elev Updated Type
                   
Dense Fog Advisory
Statement as of 8:53 PM EDT on April 20, 2015

... Dense fog advisory remains in effect until 6 am EDT Tuesday...

* locations... higher elevations of the lower Hudson Valley and
interior southern Connecticut... including Interstate 84... and
Route 6 east from Harriman to The Bear mountain bridge.

* Hazards... dense fog.

* Visibilities... one quarter mile or less at times.

* Timing... tonight after sunset.

Precautionary/preparedness actions...

A dense fog advisory means visibilities will frequently be
reduced to one quarter mile or less. If driving... slow down... use
your low beam headlights... and leave plenty of distance ahead of
you in case a sudden stop is needed.